sensor_id;sensor_type;location;lat;lon;timestamp;pressure;altitude;pressure_sealevel;temperature
25985;BMP280;66753;53.848;10.658;2023-07-22T00:06:58;101094.09;;;15.46
25985;BMP280;66753;53.848;10.658;2023-07-22T00:22:00;101086.34;;;15.41
25985;BMP280;66753;53.848;10.658;2023-07-22T00:37:02;101075.84;;;15.29
25985;BMP280;66753;53.848;10.658;2023-07-22T00:52:04;101085.31;;;15.23
25985;BMP280;66753;53.848;10.658;2023-07-22T01:07:07;101083.47;;;15.04
25985;BMP280;66753;53.848;10.658;2023-07-22T01:22:10;101084.53;;;15.00
25985;BMP280;66753;53.848;10.658;2023-07-22T01:37:12;101084.25;;;15.05
25985;BMP280;66753;53.848;10.658;2023-07-22T01:52:13;101071.31;;;15.07
25985;BMP280;66753;53.848;10.658;2023-07-22T02:07:15;101084.84;;;14.95
25985;BMP280;66753;53.848;10.658;2023-07-22T02:22:16;101089.75;;;14.93
25985;BMP280;66753;53.848;10.658;2023-07-22T02:37:18;101101.63;;;14.95
25985;BMP280;66753;53.848;10.658;2023-07-22T02:52:20;101096.69;;;14.97
25985;BMP280;66753;53.848;10.658;2023-07-22T03:07:22;101103.88;;;14.93
25985;BMP280;66753;53.848;10.658;2023-07-22T03:22:23;101117.44;;;14.85
25985;BMP280;66753;53.848;10.658;2023-07-22T03:37:25;101125.16;;;14.90
25985;BMP280;66753;53.848;10.658;2023-07-22T03:52:26;101134.84;;;14.98
25985;BMP280;66753;53.848;10.658;2023-07-22T04:07:28;101134.84;;;14.98
25985;BMP280;66753;53.848;10.658;2023-07-22T04:22:30;101142.78;;;14.94
25985;BMP280;66753;53.848;10.658;2023-07-22T04:37:31;101161.38;;;15.32
25985;BMP280;66753;53.848;10.658;2023-07-22T04:52:32;101175.34;;;15.45
25985;BMP280;66753;53.848;10.658;2023-07-22T05:07:34;101183.19;;;15.34
25985;BMP280;66753;53.848;10.658;2023-07-22T05:22:37;101198.84;;;15.36
25985;BMP280;66753;53.848;10.658;2023-07-22T05:37:38;101215.84;;;15.92
25985;BMP280;66753;53.848;10.658;2023-07-22T05:52:39;101226.09;;;16.42
25985;BMP280;66753;53.848;10.658;2023-07-22T06:07:41;101227.00;;;16.53
25985;BMP280;66753;53.848;10.658;2023-07-22T06:22:43;101238.50;;;17.16
25985;BMP280;66753;53.848;10.658;2023-07-22T06:37:44;101242.13;;;17.81
25985;BMP280;66753;53.848;10.658;2023-07-22T06:52:47;101239.03;;;18.40
25985;BMP280;66753;53.848;10.658;2023-07-22T07:07:49;101258.81;;;19.07
25985;BMP280;66753;53.848;10.658;2023-07-22T07:22:50;101235.84;;;19.58
25985;BMP280;66753;53.848;10.658;2023-07-22T07:37:52;101240.13;;;20.69
25985;BMP280;66753;53.848;10.658;2023-07-22T07:52:55;101218.56;;;20.69
25985;BMP280;66753;53.848;10.658;2023-07-22T08:07:56;101245.84;;;21.33
25985;BMP280;66753;53.848;10.658;2023-07-22T08:22:58;101220.50;;;20.65
25985;BMP280;66753;53.848;10.658;2023-07-22T08:38:00;101215.25;;;21.46
25985;BMP280;66753;53.848;10.658;2023-07-22T08:53:03;101216.22;;;20.78
25985;BMP280;66753;53.848;10.658;2023-07-22T09:08:07;101224.53;;;20.29
25985;BMP280;66753;53.848;10.658;2023-07-22T09:23:08;101250.44;;;19.50
25985;BMP280;66753;53.848;10.658;2023-07-22T09:38:11;101294.28;;;18.44
25985;BMP280;66753;53.848;10.658;2023-07-22T09:53:15;101293.53;;;17.90
25985;BMP280;66753;53.848;10.658;2023-07-22T10:08:18;101318.53;;;18.58
25985;BMP280;66753;53.848;10.658;2023-07-22T10:23:21;101302.63;;;19.14
25985;BMP280;66753;53.848;10.658;2023-07-22T10:38:25;101307.19;;;20.50
25985;BMP280;66753;53.848;10.658;2023-07-22T10:53:29;101314.00;;;20.72
25985;BMP280;66753;53.848;10.658;2023-07-22T11:08:39;101329.78;;;21.42
25985;BMP280;66753;53.848;10.658;2023-07-22T11:23:41;101303.56;;;23.32
25985;BMP280;66753;53.848;10.658;2023-07-22T11:38:43;101238.31;;;23.89
25985;BMP280;66753;53.848;10.658;2023-07-22T11:53:53;101230.94;;;24.44
25985;BMP280;66753;53.848;10.658;2023-07-22T12:08:55;101192.53;;;24.14
25985;BMP280;66753;53.848;10.658;2023-07-22T12:23:57;101187.34;;;24.03
25985;BMP280;66753;53.848;10.658;2023-07-22T12:38:59;101146.88;;;23.38
25985;BMP280;66753;53.848;10.658;2023-07-22T12:54:01;101156.88;;;23.41
25985;BMP280;66753;53.848;10.658;2023-07-22T13:09:03;101146.38;;;23.04
25985;BMP280;66753;53.848;10.658;2023-07-22T13:24:05;101194.00;;;23.79
25985;BMP280;66753;53.848;10.658;2023-07-22T13:39:07;101176.16;;;23.23
25985;BMP280;66753;53.848;10.658;2023-07-22T13:54:09;101194.78;;;22.19
25985;BMP280;66753;53.848;10.658;2023-07-22T14:09:11;101276.91;;;20.97
25985;BMP280;66753;53.848;10.658;2023-07-22T14:24:13;101309.31;;;20.86
25985;BMP280;66753;53.848;10.658;2023-07-22T14:39:15;101301.66;;;21.83
25985;BMP280;66753;53.848;10.658;2023-07-22T14:54:17;101279.69;;;22.18
25985;BMP280;66753;53.848;10.658;2023-07-22T15:09:19;101266.56;;;21.43
25985;BMP280;66753;53.848;10.658;2023-07-22T15:24:21;101272.09;;;21.73
25985;BMP280;66753;53.848;10.658;2023-07-22T15:39:23;101282.94;;;21.18
25985;BMP280;66753;53.848;10.658;2023-07-22T15:54:25;101264.25;;;20.87
25985;BMP280;66753;53.848;10.658;2023-07-22T16:09:27;101267.91;;;20.56
25985;BMP280;66753;53.848;10.658;2023-07-22T16:24:29;101267.13;;;20.55
25985;BMP280;66753;53.848;10.658;2023-07-22T16:39:30;101256.34;;;20.55
25985;BMP280;66753;53.848;10.658;2023-07-22T16:54:31;101253.72;;;20.45
25985;BMP280;66753;53.848;10.658;2023-07-22T17:09:33;101241.09;;;20.17
25985;BMP280;66753;53.848;10.658;2023-07-22T17:24:35;101234.66;;;19.73
25985;BMP280;66753;53.848;10.658;2023-07-22T17:39:37;101235.81;;;19.20
25985;BMP280;66753;53.848;10.658;2023-07-22T17:54:40;101218.50;;;19.00
25985;BMP280;66753;53.848;10.658;2023-07-22T18:09:42;101211.56;;;18.81
25985;BMP280;66753;53.848;10.658;2023-07-22T18:24:44;101197.69;;;18.55
25985;BMP280;66753;53.848;10.658;2023-07-22T18:39:46;101202.56;;;18.32
25985;BMP280;66753;53.848;10.658;2023-07-22T18:54:49;101209.34;;;18.12
25985;BMP280;66753;53.848;10.658;2023-07-22T19:09:51;101210.91;;;18.09
25985;BMP280;66753;53.848;10.658;2023-07-22T19:24:53;101210.06;;;18.02
25985;BMP280;66753;53.848;10.658;2023-07-22T19:39:55;101208.00;;;17.78
25985;BMP280;66753;53.848;10.658;2023-07-22T19:54:57;101201.72;;;17.60
25985;BMP280;66753;53.848;10.658;2023-07-22T20:09:59;101203.50;;;17.42
25985;BMP280;66753;53.848;10.658;2023-07-22T20:25:01;101195.66;;;17.23
25985;BMP280;66753;53.848;10.658;2023-07-22T20:40:03;101201.06;;;17.26
25985;BMP280;66753;53.848;10.658;2023-07-22T20:55:06;101208.19;;;17.12
25985;BMP280;66753;53.848;10.658;2023-07-22T21:10:08;101216.88;;;17.02
25985;BMP280;66753;53.848;10.658;2023-07-22T21:25:11;101215.19;;;16.87
25985;BMP280;66753;53.848;10.658;2023-07-22T21:40:13;101213.16;;;16.77
25985;BMP280;66753;53.848;10.658;2023-07-22T21:55:16;101203.81;;;16.64
25985;BMP280;66753;53.848;10.658;2023-07-22T22:10:17;101206.34;;;16.50
25985;BMP280;66753;53.848;10.658;2023-07-22T22:25:19;101196.63;;;16.38
25985;BMP280;66753;53.848;10.658;2023-07-22T22:40:21;101197.41;;;16.39
25985;BMP280;66753;53.848;10.658;2023-07-22T22:55:23;101202.97;;;16.27
25985;BMP280;66753;53.848;10.658;2023-07-22T23:10:25;101196.38;;;16.21
25985;BMP280;66753;53.848;10.658;2023-07-22T23:25:28;101189.81;;;16.15
25985;BMP280;66753;53.848;10.658;2023-07-22T23:40:30;101176.03;;;16.13
25985;BMP280;66753;53.848;10.658;2023-07-22T23:55:32;101165.91;;;16.25
